sensor_id;sensor_type;location;lat;lon;timestamp;temperature;humidity
15615;DHT22;7907;51.368;6.730;2022-09-03T00:01:15;18.70;63.70
15615;DHT22;7907;51.368;6.730;2022-09-03T00:03:48;18.70;63.90
15615;DHT22;7907;51.368;6.730;2022-09-03T00:06:20;18.60;63.70
15615;DHT22;7907;51.368;6.730;2022-09-03T00:08:53;18.60;64.30
15615;DHT22;7907;51.368;6.730;2022-09-03T00:11:28;18.50;64.60
15615;DHT22;7907;51.368;6.730;2022-09-03T00:13:59;18.50;64.80
15615;DHT22;7907;51.368;6.730;2022-09-03T00:16:41;18.40;64.70
15615;DHT22;7907;51.368;6.730;2022-09-03T00:19:12;18.40;64.80
15615;DHT22;7907;51.368;6.730;2022-09-03T00:21:45;18.30;64.90
15615;DHT22;7907;51.368;6.730;2022-09-03T00:24:17;18.30;64.90
15615;DHT22;7907;51.368;6.730;2022-09-03T00:26:47;18.20;64.70
15615;DHT22;7907;51.368;6.730;2022-09-03T00:29:22;18.20;65.10
15615;DHT22;7907;51.368;6.730;2022-09-03T00:31:52;18.10;64.90
15615;DHT22;7907;51.368;6.730;2022-09-03T00:34:26;18.10;65.40
15615;DHT22;7907;51.368;6.730;2022-09-03T00:36:55;18.00;65.40
15615;DHT22;7907;51.368;6.730;2022-09-03T00:39:24;18.00;65.30
15615;DHT22;7907;51.368;6.730;2022-09-03T00:42:02;18.00;65.90
15615;DHT22;7907;51.368;6.730;2022-09-03T00:44:52;17.90;66.20
15615;DHT22;7907;51.368;6.730;2022-09-03T00:47:27;17.90;66.50
15615;DHT22;7907;51.368;6.730;2022-09-03T00:50:08;17.90;66.70
15615;DHT22;7907;51.368;6.730;2022-09-03T00:52:46;17.90;66.90
15615;DHT22;7907;51.368;6.730;2022-09-03T00:55:26;17.80;66.90
15615;DHT22;7907;51.368;6.730;2022-09-03T00:58:06;17.80;67.30
15615;DHT22;7907;51.368;6.730;2022-09-03T01:00:34;17.80;67.00
15615;DHT22;7907;51.368;6.730;2022-09-03T01:03:06;17.80;67.20
15615;DHT22;7907;51.368;6.730;2022-09-03T01:05:42;17.70;67.60
15615;DHT22;7907;51.368;6.730;2022-09-03T01:08:25;17.70;67.40
15615;DHT22;7907;51.368;6.730;2022-09-03T01:11:02;17.70;67.40
15615;DHT22;7907;51.368;6.730;2022-09-03T01:13:38;17.60;67.50
15615;DHT22;7907;51.368;6.730;2022-09-03T01:16:13;17.60;67.40
15615;DHT22;7907;51.368;6.730;2022-09-03T01:18:50;17.60;67.50
15615;DHT22;7907;51.368;6.730;2022-09-03T01:21:47;17.60;67.90
15615;DHT22;7907;51.368;6.730;2022-09-03T01:24:35;17.60;68.40
15615;DHT22;7907;51.368;6.730;2022-09-03T01:27:17;17.50;69.10
15615;DHT22;7907;51.368;6.730;2022-09-03T01:29:52;17.50;68.40
15615;DHT22;7907;51.368;6.730;2022-09-03T01:32:26;17.40;68.70
15615;DHT22;7907;51.368;6.730;2022-09-03T01:35:01;17.40;69.10
15615;DHT22;7907;51.368;6.730;2022-09-03T01:37:37;17.40;69.40
15615;DHT22;7907;51.368;6.730;2022-09-03T01:40:16;17.30;69.30
15615;DHT22;7907;51.368;6.730;2022-09-03T01:42:56;17.30;69.30
15615;DHT22;7907;51.368;6.730;2022-09-03T01:45:46;17.30;69.10
15615;DHT22;7907;51.368;6.730;2022-09-03T01:48:34;17.30;69.60
15615;DHT22;7907;51.368;6.730;2022-09-03T01:51:11;17.30;69.30
15615;DHT22;7907;51.368;6.730;2022-09-03T01:56:44;17.30;69.40
15615;DHT22;7907;51.368;6.730;2022-09-03T01:59:25;17.20;69.40
15615;DHT22;7907;51.368;6.730;2022-09-03T02:01:58;17.20;69.70
15615;DHT22;7907;51.368;6.730;2022-09-03T02:04:28;17.20;69.80
15615;DHT22;7907;51.368;6.730;2022-09-03T02:06:58;17.20;69.60
15615;DHT22;7907;51.368;6.730;2022-09-03T02:09:27;17.20;70.00
15615;DHT22;7907;51.368;6.730;2022-09-03T02:12:00;17.10;70.20
15615;DHT22;7907;51.368;6.730;2022-09-03T02:14:29;17.10;70.00
15615;DHT22;7907;51.368;6.730;2022-09-03T02:16:59;17.10;70.30
15615;DHT22;7907;51.368;6.730;2022-09-03T02:19:28;17.10;70.50
15615;DHT22;7907;51.368;6.730;2022-09-03T02:21:56;17.00;71.20
15615;DHT22;7907;51.368;6.730;2022-09-03T02:24:24;17.00;71.10
15615;DHT22;7907;51.368;6.730;2022-09-03T02:26:52;17.00;71.50
15615;DHT22;7907;51.368;6.730;2022-09-03T02:29:20;16.90;71.60
15615;DHT22;7907;51.368;6.730;2022-09-03T02:31:48;16.90;71.60
15615;DHT22;7907;51.368;6.730;2022-09-03T02:34:16;16.90;72.00
15615;DHT22;7907;51.368;6.730;2022-09-03T02:36:45;16.90;72.00
15615;DHT22;7907;51.368;6.730;2022-09-03T02:39:13;16.80;72.20
15615;DHT22;7907;51.368;6.730;2022-09-03T02:41:40;16.80;72.10
15615;DHT22;7907;51.368;6.730;2022-09-03T02:44:12;16.80;71.90
15615;DHT22;7907;51.368;6.730;2022-09-03T02:46:44;16.80;72.50
15615;DHT22;7907;51.368;6.730;2022-09-03T02:49:15;16.70;72.10
15615;DHT22;7907;51.368;6.730;2022-09-03T02:51:43;16.70;72.40
15615;DHT22;7907;51.368;6.730;2022-09-03T02:54:11;16.70;72.70
15615;DHT22;7907;51.368;6.730;2022-09-03T02:56:38;16.70;73.10
15615;DHT22;7907;51.368;6.730;2022-09-03T02:59:07;16.60;73.40
15615;DHT22;7907;51.368;6.730;2022-09-03T03:01:35;16.60;73.80
15615;DHT22;7907;51.368;6.730;2022-09-03T03:04:02;16.60;73.90
15615;DHT22;7907;51.368;6.730;2022-09-03T03:06:31;16.60;74.00
15615;DHT22;7907;51.368;6.730;2022-09-03T03:08:58;16.60;74.10
15615;DHT22;7907;51.368;6.730;2022-09-03T03:11:26;16.60;74.30
15615;DHT22;7907;51.368;6.730;2022-09-03T03:13:54;16.50;74.20
15615;DHT22;7907;51.368;6.730;2022-09-03T03:16:21;16.50;74.40
15615;DHT22;7907;51.368;6.730;2022-09-03T03:18:48;16.50;74.80
15615;DHT22;7907;51.368;6.730;2022-09-03T03:21:18;16.50;74.70
15615;DHT22;7907;51.368;6.730;2022-09-03T03:23:46;16.50;74.60
15615;DHT22;7907;51.368;6.730;2022-09-03T03:26:16;16.40;74.70
15615;DHT22;7907;51.368;6.730;2022-09-03T03:28:44;16.40;74.50
15615;DHT22;7907;51.368;6.730;2022-09-03T03:31:13;16.50;74.80
15615;DHT22;7907;51.368;6.730;2022-09-03T03:33:41;16.40;74.80
15615;DHT22;7907;51.368;6.730;2022-09-03T03:36:10;16.40;75.00
15615;DHT22;7907;51.368;6.730;2022-09-03T03:38:39;16.40;75.10
15615;DHT22;7907;51.368;6.730;2022-09-03T03:41:09;16.40;75.10
15615;DHT22;7907;51.368;6.730;2022-09-03T03:43:36;16.40;75.30
15615;DHT22;7907;51.368;6.730;2022-09-03T03:46:04;16.40;75.40
15615;DHT22;7907;51.368;6.730;2022-09-03T03:48:31;16.40;75.80
15615;DHT22;7907;51.368;6.730;2022-09-03T03:51:00;16.30;75.70
15615;DHT22;7907;51.368;6.730;2022-09-03T03:53:28;16.40;75.90
15615;DHT22;7907;51.368;6.730;2022-09-03T03:55:56;16.30;76.40
15615;DHT22;7907;51.368;6.730;2022-09-03T03:58:25;16.30;76.60
15615;DHT22;7907;51.368;6.730;2022-09-03T04:00:53;16.30;77.00
15615;DHT22;7907;51.368;6.730;2022-09-03T04:03:20;16.30;77.00
15615;DHT22;7907;51.368;6.730;2022-09-03T04:05:54;16.30;77.20
15615;DHT22;7907;51.368;6.730;2022-09-03T04:08:22;16.30;77.70
15615;DHT22;7907;51.368;6.730;2022-09-03T04:10:49;16.20;77.90
15615;DHT22;7907;51.368;6.730;2022-09-03T04:13:16;16.20;78.10
15615;DHT22;7907;51.368;6.730;2022-09-03T04:15:45;16.20;78.30
15615;DHT22;7907;51.368;6.730;2022-09-03T04:18:12;16.20;78.80
15615;DHT22;7907;51.368;6.730;2022-09-03T04:20:39;16.20;79.10
15615;DHT22;7907;51.368;6.730;2022-09-03T04:23:06;16.20;79.80
15615;DHT22;7907;51.368;6.730;2022-09-03T04:25:33;16.10;79.30
15615;DHT22;7907;51.368;6.730;2022-09-03T04:28:00;16.10;80.00
15615;DHT22;7907;51.368;6.730;2022-09-03T04:30:28;16.10;80.00
15615;DHT22;7907;51.368;6.730;2022-09-03T04:32:56;16.10;80.40
15615;DHT22;7907;51.368;6.730;2022-09-03T04:35:25;16.10;81.10
15615;DHT22;7907;51.368;6.730;2022-09-03T04:37:57;16.00;81.10
15615;DHT22;7907;51.368;6.730;2022-09-03T04:40:24;16.00;81.20
15615;DHT22;7907;51.368;6.730;2022-09-03T04:42:56;16.00;81.70
15615;DHT22;7907;51.368;6.730;2022-09-03T04:45:23;16.00;82.50
15615;DHT22;7907;51.368;6.730;2022-09-03T04:47:59;15.90;83.10
15615;DHT22;7907;51.368;6.730;2022-09-03T04:50:27;15.90;82.80
15615;DHT22;7907;51.368;6.730;2022-09-03T04:52:59;15.90;83.00
15615;DHT22;7907;51.368;6.730;2022-09-03T04:55:27;15.90;83.50
15615;DHT22;7907;51.368;6.730;2022-09-03T04:57:54;15.90;84.00
15615;DHT22;7907;51.368;6.730;2022-09-03T05:00:21;15.90;84.60
15615;DHT22;7907;51.368;6.730;2022-09-03T05:03:00;15.90;85.00
15615;DHT22;7907;51.368;6.730;2022-09-03T05:05:29;15.80;85.60
15615;DHT22;7907;51.368;6.730;2022-09-03T05:07:58;15.80;86.10
15615;DHT22;7907;51.368;6.730;2022-09-03T05:10:26;15.80;86.60
15615;DHT22;7907;51.368;6.730;2022-09-03T05:12:58;15.80;87.50
15615;DHT22;7907;51.368;6.730;2022-09-03T05:15:25;15.90;90.30
15615;DHT22;7907;51.368;6.730;2022-09-03T05:17:55;15.90;90.20
15615;DHT22;7907;51.368;6.730;2022-09-03T05:20:24;16.00;90.60
15615;DHT22;7907;51.368;6.730;2022-09-03T05:22:52;16.20;90.60
15615;DHT22;7907;51.368;6.730;2022-09-03T05:25:19;16.30;90.80
15615;DHT22;7907;51.368;6.730;2022-09-03T05:27:47;16.40;90.50
15615;DHT22;7907;51.368;6.730;2022-09-03T05:30:16;16.50;90.10
15615;DHT22;7907;51.368;6.730;2022-09-03T05:32:43;16.60;89.40
15615;DHT22;7907;51.368;6.730;2022-09-03T05:35:10;16.70;89.20
15615;DHT22;7907;51.368;6.730;2022-09-03T05:37:39;16.80;89.20
15615;DHT22;7907;51.368;6.730;2022-09-03T05:40:07;16.80;88.50
15615;DHT22;7907;51.368;6.730;2022-09-03T05:42:36;16.80;88.80
15615;DHT22;7907;51.368;6.730;2022-09-03T05:45:06;16.90;88.10
15615;DHT22;7907;51.368;6.730;2022-09-03T05:47:36;16.90;88.90
15615;DHT22;7907;51.368;6.730;2022-09-03T05:50:05;17.00;88.80
15615;DHT22;7907;51.368;6.730;2022-09-03T05:52:33;17.00;89.20
15615;DHT22;7907;51.368;6.730;2022-09-03T05:55:05;17.10;89.30
15615;DHT22;7907;51.368;6.730;2022-09-03T05:57:32;17.20;89.00
15615;DHT22;7907;51.368;6.730;2022-09-03T06:00:00;17.30;89.20
15615;DHT22;7907;51.368;6.730;2022-09-03T06:02:27;17.40;89.40
15615;DHT22;7907;51.368;6.730;2022-09-03T06:04:54;17.60;89.20
15615;DHT22;7907;51.368;6.730;2022-09-03T06:07:22;17.80;88.10
15615;DHT22;7907;51.368;6.730;2022-09-03T06:09:50;18.00;87.70
15615;DHT22;7907;51.368;6.730;2022-09-03T06:12:19;18.20;86.80
15615;DHT22;7907;51.368;6.730;2022-09-03T06:14:46;18.30;86.00
15615;DHT22;7907;51.368;6.730;2022-09-03T06:17:14;18.50;85.30
15615;DHT22;7907;51.368;6.730;2022-09-03T06:19:41;18.60;84.80
15615;DHT22;7907;51.368;6.730;2022-09-03T06:22:08;18.80;84.00
15615;DHT22;7907;51.368;6.730;2022-09-03T06:24:35;18.80;83.80
15615;DHT22;7907;51.368;6.730;2022-09-03T06:27:02;18.90;83.70
15615;DHT22;7907;51.368;6.730;2022-09-03T06:29:31;19.00;83.10
15615;DHT22;7907;51.368;6.730;2022-09-03T06:32:00;19.10;82.80
15615;DHT22;7907;51.368;6.730;2022-09-03T06:34:29;19.20;82.30
15615;DHT22;7907;51.368;6.730;2022-09-03T06:36:56;19.30;81.80
15615;DHT22;7907;51.368;6.730;2022-09-03T06:39:24;19.50;81.90
15615;DHT22;7907;51.368;6.730;2022-09-03T06:41:51;19.60;81.20
15615;DHT22;7907;51.368;6.730;2022-09-03T06:44:19;19.70;80.90
15615;DHT22;7907;51.368;6.730;2022-09-03T06:46:48;19.90;80.30
15615;DHT22;7907;51.368;6.730;2022-09-03T06:49:18;20.00;80.00
15615;DHT22;7907;51.368;6.730;2022-09-03T06:51:45;20.10;79.50
15615;DHT22;7907;51.368;6.730;2022-09-03T06:54:13;20.20;79.10
15615;DHT22;7907;51.368;6.730;2022-09-03T06:56:40;20.30;78.80
15615;DHT22;7907;51.368;6.730;2022-09-03T06:59:10;20.40;77.80
15615;DHT22;7907;51.368;6.730;2022-09-03T07:01:38;20.50;77.90
15615;DHT22;7907;51.368;6.730;2022-09-03T07:04:07;20.60;77.50
15615;DHT22;7907;51.368;6.730;2022-09-03T07:06:35;20.80;77.20
15615;DHT22;7907;51.368;6.730;2022-09-03T07:09:03;20.90;76.60
15615;DHT22;7907;51.368;6.730;2022-09-03T07:11:30;21.00;75.90
15615;DHT22;7907;51.368;6.730;2022-09-03T07:14:04;21.00;75.40
15615;DHT22;7907;51.368;6.730;2022-09-03T07:16:33;21.00;75.50
15615;DHT22;7907;51.368;6.730;2022-09-03T07:19:00;21.10;75.60
15615;DHT22;7907;51.368;6.730;2022-09-03T07:21:31;21.10;75.10
15615;DHT22;7907;51.368;6.730;2022-09-03T07:24:01;21.20;74.60
15615;DHT22;7907;51.368;6.730;2022-09-03T07:26:32;21.20;74.50
15615;DHT22;7907;51.368;6.730;2022-09-03T07:28:59;21.20;74.40
15615;DHT22;7907;51.368;6.730;2022-09-03T07:31:27;21.30;71.60
15615;DHT22;7907;51.368;6.730;2022-09-03T07:33:57;21.20;71.70
15615;DHT22;7907;51.368;6.730;2022-09-03T07:36:25;21.30;73.00
15615;DHT22;7907;51.368;6.730;2022-09-03T07:38:56;21.40;73.70
15615;DHT22;7907;51.368;6.730;2022-09-03T07:41:24;21.40;72.40
15615;DHT22;7907;51.368;6.730;2022-09-03T07:43:52;21.50;72.60
15615;DHT22;7907;51.368;6.730;2022-09-03T07:46:21;21.60;71.70
15615;DHT22;7907;51.368;6.730;2022-09-03T07:48:48;21.60;70.20
15615;DHT22;7907;51.368;6.730;2022-09-03T07:51:17;21.60;70.10
15615;DHT22;7907;51.368;6.730;2022-09-03T07:53:45;21.60;70.90
15615;DHT22;7907;51.368;6.730;2022-09-03T07:56:14;21.60;70.30
15615;DHT22;7907;51.368;6.730;2022-09-03T07:58:41;21.60;70.10
15615;DHT22;7907;51.368;6.730;2022-09-03T08:01:10;21.60;69.90
15615;DHT22;7907;51.368;6.730;2022-09-03T08:03:38;21.70;69.60
15615;DHT22;7907;51.368;6.730;2022-09-03T08:06:08;21.70;70.00
15615;DHT22;7907;51.368;6.730;2022-09-03T08:08:37;21.70;70.00
15615;DHT22;7907;51.368;6.730;2022-09-03T08:11:06;21.80;70.60
15615;DHT22;7907;51.368;6.730;2022-09-03T08:13:37;21.80;69.30
15615;DHT22;7907;51.368;6.730;2022-09-03T08:16:05;21.90;68.70
15615;DHT22;7907;51.368;6.730;2022-09-03T08:18:33;21.90;68.90
15615;DHT22;7907;51.368;6.730;2022-09-03T08:21:05;22.00;69.50
15615;DHT22;7907;51.368;6.730;2022-09-03T08:23:36;22.00;68.50
15615;DHT22;7907;51.368;6.730;2022-09-03T08:26:04;22.10;68.50
15615;DHT22;7907;51.368;6.730;2022-09-03T08:28:32;22.20;69.20
15615;DHT22;7907;51.368;6.730;2022-09-03T08:31:05;22.20;68.50
15615;DHT22;7907;51.368;6.730;2022-09-03T08:33:34;22.20;68.00
15615;DHT22;7907;51.368;6.730;2022-09-03T08:36:06;22.20;69.40
15615;DHT22;7907;51.368;6.730;2022-09-03T08:38:35;22.30;67.80
15615;DHT22;7907;51.368;6.730;2022-09-03T08:41:09;22.30;67.30
15615;DHT22;7907;51.368;6.730;2022-09-03T08:43:55;22.30;68.50
15615;DHT22;7907;51.368;6.730;2022-09-03T08:46:34;22.20;67.90
15615;DHT22;7907;51.368;6.730;2022-09-03T08:49:03;22.30;67.70
15615;DHT22;7907;51.368;6.730;2022-09-03T08:51:31;22.30;68.30
15615;DHT22;7907;51.368;6.730;2022-09-03T08:54:03;22.30;69.00
15615;DHT22;7907;51.368;6.730;2022-09-03T08:56:32;22.40;68.00
15615;DHT22;7907;51.368;6.730;2022-09-03T08:59:02;22.40;67.70
15615;DHT22;7907;51.368;6.730;2022-09-03T09:01:39;22.50;68.00
15615;DHT22;7907;51.368;6.730;2022-09-03T09:04:21;22.50;68.10
15615;DHT22;7907;51.368;6.730;2022-09-03T09:06:54;22.60;67.90
15615;DHT22;7907;51.368;6.730;2022-09-03T09:09:29;22.70;68.30
15615;DHT22;7907;51.368;6.730;2022-09-03T09:12:07;22.80;67.80
15615;DHT22;7907;51.368;6.730;2022-09-03T09:14:44;22.80;66.90
15615;DHT22;7907;51.368;6.730;2022-09-03T09:17:29;22.80;67.30
15615;DHT22;7907;51.368;6.730;2022-09-03T09:20:05;22.90;67.10
15615;DHT22;7907;51.368;6.730;2022-09-03T09:22:37;23.00;67.00
15615;DHT22;7907;51.368;6.730;2022-09-03T09:25:08;23.00;67.30
15615;DHT22;7907;51.368;6.730;2022-09-03T09:27:43;23.00;66.40
15615;DHT22;7907;51.368;6.730;2022-09-03T09:30:16;23.00;66.60
15615;DHT22;7907;51.368;6.730;2022-09-03T09:32:45;22.90;66.80
15615;DHT22;7907;51.368;6.730;2022-09-03T09:35:14;23.00;67.40
15615;DHT22;7907;51.368;6.730;2022-09-03T09:37:49;22.90;67.90
15615;DHT22;7907;51.368;6.730;2022-09-03T09:40:28;23.00;67.20
15615;DHT22;7907;51.368;6.730;2022-09-03T09:43:05;22.90;67.80
15615;DHT22;7907;51.368;6.730;2022-09-03T09:45:33;23.00;67.40
15615;DHT22;7907;51.368;6.730;2022-09-03T09:48:05;23.00;67.70
15615;DHT22;7907;51.368;6.730;2022-09-03T09:50:34;23.00;67.50
15615;DHT22;7907;51.368;6.730;2022-09-03T09:53:03;23.00;67.70
15615;DHT22;7907;51.368;6.730;2022-09-03T09:55:48;23.00;67.90
15615;DHT22;7907;51.368;6.730;2022-09-03T09:58:18;23.10;68.10
15615;DHT22;7907;51.368;6.730;2022-09-03T10:00:58;23.30;68.30
15615;DHT22;7907;51.368;6.730;2022-09-03T10:03:31;23.30;68.40
15615;DHT22;7907;51.368;6.730;2022-09-03T10:06:05;23.40;68.00
15615;DHT22;7907;51.368;6.730;2022-09-03T10:08:50;23.50;68.40
15615;DHT22;7907;51.368;6.730;2022-09-03T10:11:19;23.50;68.10
15615;DHT22;7907;51.368;6.730;2022-09-03T10:13:51;23.60;67.90
15615;DHT22;7907;51.368;6.730;2022-09-03T10:16:26;23.60;68.30
15615;DHT22;7907;51.368;6.730;2022-09-03T10:19:05;23.70;68.20
15615;DHT22;7907;51.368;6.730;2022-09-03T10:21:40;23.80;67.50
15615;DHT22;7907;51.368;6.730;2022-09-03T10:24:24;23.80;68.50
15615;DHT22;7907;51.368;6.730;2022-09-03T10:26:54;23.90;68.30
15615;DHT22;7907;51.368;6.730;2022-09-03T10:29:23;24.00;68.50
15615;DHT22;7907;51.368;6.730;2022-09-03T10:32:03;24.10;68.20
15615;DHT22;7907;51.368;6.730;2022-09-03T10:34:43;24.10;67.80
15615;DHT22;7907;51.368;6.730;2022-09-03T10:37:20;24.10;67.40
15615;DHT22;7907;51.368;6.730;2022-09-03T10:40:05;24.10;67.90
15615;DHT22;7907;51.368;6.730;2022-09-03T10:42:42;24.20;67.90
15615;DHT22;7907;51.368;6.730;2022-09-03T10:45:29;24.30;67.30
15615;DHT22;7907;51.368;6.730;2022-09-03T10:48:28;24.40;67.00
15615;DHT22;7907;51.368;6.730;2022-09-03T10:51:03;24.50;68.30
15615;DHT22;7907;51.368;6.730;2022-09-03T10:53:44;24.60;68.10
15615;DHT22;7907;51.368;6.730;2022-09-03T10:56:18;24.60;67.80
15615;DHT22;7907;51.368;6.730;2022-09-03T10:58:56;24.70;68.70
15615;DHT22;7907;51.368;6.730;2022-09-03T11:01:30;24.80;69.20
15615;DHT22;7907;51.368;6.730;2022-09-03T11:04:16;24.90;69.00
15615;DHT22;7907;51.368;6.730;2022-09-03T11:06:51;25.00;68.50
15615;DHT22;7907;51.368;6.730;2022-09-03T11:09:21;25.10;68.10
15615;DHT22;7907;51.368;6.730;2022-09-03T11:11:53;25.20;68.30
15615;DHT22;7907;51.368;6.730;2022-09-03T11:14:30;25.20;68.30
15615;DHT22;7907;51.368;6.730;2022-09-03T11:17:02;25.20;68.40
15615;DHT22;7907;51.368;6.730;2022-09-03T11:19:33;25.30;68.30
15615;DHT22;7907;51.368;6.730;2022-09-03T11:22:05;25.30;69.20
15615;DHT22;7907;51.368;6.730;2022-09-03T11:24:34;25.30;68.70
15615;DHT22;7907;51.368;6.730;2022-09-03T11:27:13;25.40;68.80
15615;DHT22;7907;51.368;6.730;2022-09-03T11:29:50;25.40;68.80
15615;DHT22;7907;51.368;6.730;2022-09-03T11:32:23;25.50;68.80
15615;DHT22;7907;51.368;6.730;2022-09-03T11:34:52;25.60;68.70
15615;DHT22;7907;51.368;6.730;2022-09-03T11:37:23;25.60;68.00
15615;DHT22;7907;51.368;6.730;2022-09-03T11:39:55;25.60;68.60
15615;DHT22;7907;51.368;6.730;2022-09-03T11:42:28;25.70;68.10
15615;DHT22;7907;51.368;6.730;2022-09-03T11:44:59;25.80;69.10
15615;DHT22;7907;51.368;6.730;2022-09-03T11:47:39;25.90;68.80
15615;DHT22;7907;51.368;6.730;2022-09-03T11:50:15;25.90;68.70
15615;DHT22;7907;51.368;6.730;2022-09-03T11:52:48;26.00;68.10
15615;DHT22;7907;51.368;6.730;2022-09-03T11:55:29;26.10;68.40
15615;DHT22;7907;51.368;6.730;2022-09-03T11:58:08;26.20;68.50
15615;DHT22;7907;51.368;6.730;2022-09-03T12:00:42;26.30;68.10
15615;DHT22;7907;51.368;6.730;2022-09-03T12:03:13;26.40;68.40
15615;DHT22;7907;51.368;6.730;2022-09-03T12:05:48;26.50;67.40
15615;DHT22;7907;51.368;6.730;2022-09-03T12:11:33;26.80;66.00
15615;DHT22;7907;51.368;6.730;2022-09-03T12:14:07;27.00;65.40
15615;DHT22;7907;51.368;6.730;2022-09-03T12:16:56;27.10;64.90
15615;DHT22;7907;51.368;6.730;2022-09-03T12:19:31;27.30;64.80
15615;DHT22;7907;51.368;6.730;2022-09-03T12:22:00;27.50;64.00
15615;DHT22;7907;51.368;6.730;2022-09-03T12:24:31;27.60;63.60
15615;DHT22;7907;51.368;6.730;2022-09-03T12:27:00;27.80;63.40
15615;DHT22;7907;51.368;6.730;2022-09-03T12:29:29;27.90;62.70
15615;DHT22;7907;51.368;6.730;2022-09-03T12:32:05;28.10;63.20
15615;DHT22;7907;51.368;6.730;2022-09-03T12:34:33;28.30;62.90
15615;DHT22;7907;51.368;6.730;2022-09-03T12:37:01;28.40;62.50
15615;DHT22;7907;51.368;6.730;2022-09-03T12:39:28;28.60;62.30
15615;DHT22;7907;51.368;6.730;2022-09-03T12:42:00;28.70;61.70
15615;DHT22;7907;51.368;6.730;2022-09-03T12:44:30;28.60;61.10
15615;DHT22;7907;51.368;6.730;2022-09-03T12:47:03;28.70;61.50
15615;DHT22;7907;51.368;6.730;2022-09-03T12:49:35;28.90;61.30
15615;DHT22;7907;51.368;6.730;2022-09-03T12:52:06;29.10;60.70
15615;DHT22;7907;51.368;6.730;2022-09-03T12:54:38;29.40;60.60
15615;DHT22;7907;51.368;6.730;2022-09-03T12:57:10;29.70;59.30
15615;DHT22;7907;51.368;6.730;2022-09-03T12:59:38;29.90;58.30
15615;DHT22;7907;51.368;6.730;2022-09-03T13:02:13;30.00;58.10
15615;DHT22;7907;51.368;6.730;2022-09-03T13:04:43;30.00;58.90
15615;DHT22;7907;51.368;6.730;2022-09-03T13:07:13;30.10;58.00
15615;DHT22;7907;51.368;6.730;2022-09-03T13:09:46;30.10;59.20
15615;DHT22;7907;51.368;6.730;2022-09-03T13:12:27;30.10;57.90
15615;DHT22;7907;51.368;6.730;2022-09-03T13:14:55;30.00;58.80
15615;DHT22;7907;51.368;6.730;2022-09-03T13:17:34;30.00;58.70
15615;DHT22;7907;51.368;6.730;2022-09-03T13:20:24;30.20;58.00
15615;DHT22;7907;51.368;6.730;2022-09-03T13:23:09;30.40;57.40
15615;DHT22;7907;51.368;6.730;2022-09-03T13:25:47;30.60;57.10
15615;DHT22;7907;51.368;6.730;2022-09-03T13:28:28;30.90;58.00
15615;DHT22;7907;51.368;6.730;2022-09-03T13:31:08;31.20;57.80
15615;DHT22;7907;51.368;6.730;2022-09-03T13:33:39;31.70;56.60
15615;DHT22;7907;51.368;6.730;2022-09-03T13:36:12;32.20;56.20
15615;DHT22;7907;51.368;6.730;2022-09-03T13:38:44;32.40;54.60
15615;DHT22;7907;51.368;6.730;2022-09-03T13:41:15;32.30;54.50
15615;DHT22;7907;51.368;6.730;2022-09-03T13:43:50;32.30;55.60
15615;DHT22;7907;51.368;6.730;2022-09-03T13:46:23;32.20;54.60
15615;DHT22;7907;51.368;6.730;2022-09-03T13:48:58;32.00;55.30
15615;DHT22;7907;51.368;6.730;2022-09-03T13:51:48;31.90;54.70
15615;DHT22;7907;51.368;6.730;2022-09-03T13:54:19;31.90;55.00
15615;DHT22;7907;51.368;6.730;2022-09-03T13:56:54;31.80;54.80
15615;DHT22;7907;51.368;6.730;2022-09-03T13:59:30;32.10;56.60
15615;DHT22;7907;51.368;6.730;2022-09-03T14:02:19;32.40;54.40
15615;DHT22;7907;51.368;6.730;2022-09-03T14:05:03;32.40;54.20
15615;DHT22;7907;51.368;6.730;2022-09-03T14:07:50;32.60;53.90
15615;DHT22;7907;51.368;6.730;2022-09-03T14:10:23;32.80;54.20
15615;DHT22;7907;51.368;6.730;2022-09-03T14:13:07;33.40;54.20
15615;DHT22;7907;51.368;6.730;2022-09-03T14:15:43;33.70;52.80
15615;DHT22;7907;51.368;6.730;2022-09-03T14:18:27;34.00;51.80
15615;DHT22;7907;51.368;6.730;2022-09-03T14:21:01;34.60;51.30
15615;DHT22;7907;51.368;6.730;2022-09-03T14:23:35;34.80;50.80
15615;DHT22;7907;51.368;6.730;2022-09-03T14:26:06;35.00;50.70
15615;DHT22;7907;51.368;6.730;2022-09-03T14:28:44;35.50;49.80
15615;DHT22;7907;51.368;6.730;2022-09-03T14:31:20;35.50;49.40
15615;DHT22;7907;51.368;6.730;2022-09-03T14:33:58;35.90;50.20
15615;DHT22;7907;51.368;6.730;2022-09-03T14:36:34;36.30;49.40
15615;DHT22;7907;51.368;6.730;2022-09-03T14:39:35;36.50;48.70
15615;DHT22;7907;51.368;6.730;2022-09-03T14:45:23;36.30;48.10
15615;DHT22;7907;51.368;6.730;2022-09-03T14:48:07;35.30;49.50
15615;DHT22;7907;51.368;6.730;2022-09-03T14:50:54;34.70;50.30
15615;DHT22;7907;51.368;6.730;2022-09-03T14:53:35;34.10;50.30
15615;DHT22;7907;51.368;6.730;2022-09-03T14:56:21;33.70;51.50
15615;DHT22;7907;51.368;6.730;2022-09-03T14:59:06;33.30;51.90
15615;DHT22;7907;51.368;6.730;2022-09-03T15:01:38;33.00;51.70
15615;DHT22;7907;51.368;6.730;2022-09-03T15:04:28;32.70;52.70
15615;DHT22;7907;51.368;6.730;2022-09-03T15:07:13;33.20;51.80
15615;DHT22;7907;51.368;6.730;2022-09-03T15:09:49;33.70;50.90
15615;DHT22;7907;51.368;6.730;2022-09-03T15:12:23;34.40;50.10
15615;DHT22;7907;51.368;6.730;2022-09-03T15:14:56;34.70;49.50
15615;DHT22;7907;51.368;6.730;2022-09-03T15:17:40;34.90;49.30
15615;DHT22;7907;51.368;6.730;2022-09-03T15:20:18;35.00;48.80
15615;DHT22;7907;51.368;6.730;2022-09-03T15:23:10;35.50;48.20
15615;DHT22;7907;51.368;6.730;2022-09-03T15:28:39;35.90;47.30
15615;DHT22;7907;51.368;6.730;2022-09-03T15:31:13;35.90;47.20
15615;DHT22;7907;51.368;6.730;2022-09-03T15:33:49;35.80;47.20
15615;DHT22;7907;51.368;6.730;2022-09-03T15:36:20;36.10;47.00
15615;DHT22;7907;51.368;6.730;2022-09-03T15:38:54;36.30;46.70
15615;DHT22;7907;51.368;6.730;2022-09-03T15:41:33;36.60;47.20
15615;DHT22;7907;51.368;6.730;2022-09-03T15:44:04;37.20;46.50
15615;DHT22;7907;51.368;6.730;2022-09-03T15:46:52;37.30;45.50
15615;DHT22;7907;51.368;6.730;2022-09-03T15:49:36;37.30;45.20
15615;DHT22;7907;51.368;6.730;2022-09-03T15:52:25;36.80;46.30
15615;DHT22;7907;51.368;6.730;2022-09-03T15:54:59;36.80;46.30
15615;DHT22;7907;51.368;6.730;2022-09-03T15:57:32;37.10;46.00
15615;DHT22;7907;51.368;6.730;2022-09-03T16:00:03;37.30;45.90
15615;DHT22;7907;51.368;6.730;2022-09-03T16:02:39;37.00;45.70
15615;DHT22;7907;51.368;6.730;2022-09-03T16:05:12;36.30;46.10
15615;DHT22;7907;51.368;6.730;2022-09-03T16:08:05;35.70;46.70
15615;DHT22;7907;51.368;6.730;2022-09-03T16:10:49;35.00;47.20
15615;DHT22;7907;51.368;6.730;2022-09-03T16:13:37;34.40;48.30
15615;DHT22;7907;51.368;6.730;2022-09-03T16:16:09;33.90;48.90
15615;DHT22;7907;51.368;6.730;2022-09-03T16:18:39;33.50;49.40
15615;DHT22;7907;51.368;6.730;2022-09-03T16:21:13;33.10;50.20
15615;DHT22;7907;51.368;6.730;2022-09-03T16:23:52;32.60;50.40
15615;DHT22;7907;51.368;6.730;2022-09-03T16:26:26;32.30;51.00
15615;DHT22;7907;51.368;6.730;2022-09-03T16:29:00;32.00;51.60
15615;DHT22;7907;51.368;6.730;2022-09-03T16:31:37;31.70;52.50
15615;DHT22;7907;51.368;6.730;2022-09-03T16:34:14;31.40;52.80